^^
Grace C. Lehan Memorial Weather Station Historical Data
Daily Summary for August 06, 2022 Units:  English    Metric   Both
Daily Weekly Monthly Yearly
  High: Low: Average:
Temperature: 95.4 °F 74.5 °F 85 °F
Dew Point: 77.9 °F 71.7 °F 74.1 °F
Humidity: 93.3% 50% 72%
Wind Speed: 1.8mph 0mph 0.2mph
Wind Gust: 12mph - -
Wind- - SW
Pressure: 30.17 in 30.08 in -
Precipitation: 0.00 in    
 
 
Tabular Data for August 06, 2022
Time Temperature Dew Point Pressure Wind Wind Speed Wind Gust Humidity Rainfall Rate (Hourly) solar
00:00 79.8 °F 72.7 °F 30.11 in Calm     79% 0.00 in 0 W/m2
00:09 79.6 °F 72.5 °F 30.11 in Calm     79% 0.00 in 0 W/m2
00:14 79.5 °F 72.5 °F 30.11 in Calm     79.4% 0.00 in 0 W/m2
00:19 79.3 °F 72.6 °F 30.11 in Calm     80% 0.00 in 0 W/m2
00:24 79.2 °F 72.5 °F 30.11 in Calm     80% 0.00 in 0 W/m2
00:29 79.1 °F 72.4 °F 30.11 in Calm     80% 0.00 in 0 W/m2
00:34 79 °F 72.3 °F 30.11 in Calm     80.2% 0.00 in 0 W/m2
00:39 78.9 °F 72.6 °F 30.11 in Calm     81% 0.00 in 0 W/m2
00:44 78.7 °F 72.4 °F 30.11 in Calm     81% 0.00 in 0 W/m2
00:49 78.7 °F 72.4 °F 30.11 in Calm     81.2% 0.00 in 0 W/m2
00:54 78.6 °F 72.6 °F 30.11 in Calm     82% 0.00 in 0 W/m2
00:59 78.5 °F 72.6 °F 30.11 in Calm     82% 0.00 in 0 W/m2
01:04 78.4 °F 72.5 °F 30.11 in Calm     82% 0.00 in 0 W/m2
01:09 78.3 °F 72.4 °F 30.11 in Calm     82% 0.00 in 0 W/m2
01:14 78.2 °F 72.3 °F 30.11 in Calm     82.1% 0.00 in 0 W/m2
01:19 78.1 °F 72.5 °F 30.11 in Calm     83% 0.00 in 0 W/m2
01:24 77.9 °F 72.4 °F 30.11 in Calm     83% 0.00 in 0 W/m2
01:29 77.8 °F 72.2 °F 30.11 in Calm     83% 0.00 in 0 W/m2
01:34 77.7 °F 72.4 °F 30.11 in Calm     83.9% 0.00 in 0 W/m2
01:39 77.6 °F 72.4 °F 30.11 in Calm     84% 0.00 in 0 W/m2
01:44 77.5 °F 72.3 °F 30.11 in Calm     84% 0.00 in 0 W/m2
01:49 77.5 °F 72.2 °F 30.12 in Calm     84% 0.00 in 0 W/m2
01:54 77.3 °F 72.1 °F 30.12 in Calm     84% 0.00 in 0 W/m2
01:59 77.3 °F 72.1 °F 30.12 in Calm     84% 0.00 in 0 W/m2
02:04 77.2 °F 72.3 °F 30.12 in Calm     85% 0.00 in 0 W/m2
02:09 77.1 °F 72.3 °F 30.12 in Calm     85% 0.00 in 0 W/m2
02:14 77.1 °F 72.2 °F 30.12 in Calm     85% 0.00 in 0 W/m2
02:19 77 °F 72.3 °F 30.12 in Calm     85.5% 0.00 in 0 W/m2
02:24 76.9 °F 72.4 °F 30.12 in Calm     86% 0.00 in 0 W/m2
02:29 76.9 °F 72.4 °F 30.12 in Calm     86% 0.00 in 0 W/m2
02:34 76.8 °F 72.5 °F 30.12 in Calm     86.6% 0.00 in 0 W/m2
02:39 76.8 °F 72.6 °F 30.12 in Calm     87% 0.00 in 0 W/m2
02:44 76.7 °F 72.5 °F 30.12 in Calm     87% 0.00 in 0 W/m2
02:49 76.6 °F 72.5 °F 30.13 in Calm     87% 0.00 in 0 W/m2
02:54 76.6 °F 72.6 °F 30.13 in Calm     87.3% 0.00 in 0 W/m2
02:59 76.5 °F 72.7 °F 30.13 in Calm     88% 0.00 in 0 W/m2
03:03 76.5 °F 72.7 °F 30.13 in Calm     88% 0.00 in 0 W/m2
03:09 76.4 °F 72.6 °F 30.13 in Calm     88% 0.00 in 0 W/m2
03:14 76.4 °F 72.6 °F 30.13 in Calm     88% 0.00 in 0 W/m2
03:19 76.3 °F 72.5 °F 30.13 in Calm     88% 0.00 in 0 W/m2
03:24 76.3 °F 72.7 °F 30.13 in Calm     88.6% 0.00 in 0 W/m2
03:29 76.3 °F 72.8 °F 30.13 in Calm     89% 0.00 in 0 W/m2
03:34 76.2 °F 72.8 °F 30.13 in Calm     89% 0.00 in 0 W/m2
03:39 76.2 °F 72.7 °F 30.12 in Calm     89% 0.00 in 0 W/m2
03:44 76.2 °F 72.7 °F 30.12 in Calm     89% 0.00 in 0 W/m2
03:49 76.2 °F 72.7 °F 30.12 in Calm     89% 0.00 in 0 W/m2
03:54 76.1 °F 72.7 °F 30.12 in Calm     89% 0.00 in 0 W/m2
03:59 76.1 °F 72.6 °F 30.13 in Calm     89% 0.00 in 0 W/m2
04:00 76.1 °F 72.6 °F 30.13 in Calm     89% 0.00 in 0 W/m2
04:09 76 °F 72.7 °F 30.13 in Calm     89.5% 0.00 in 0 W/m2
04:14 76 °F 72.9 °F 30.13 in Calm     90% 0.00 in 0 W/m2
04:19 75.9 °F 72.8 °F 30.13 in Calm     90% 0.00 in 0 W/m2
04:24 75.8 °F 72.7 °F 30.13 in Calm     90% 0.00 in 0 W/m2
04:29 75.8 °F 72.6 °F 30.13 in Calm     90% 0.00 in 0 W/m2
04:34 75.7 °F 72.6 °F 30.13 in Calm     90% 0.00 in 0 W/m2
04:39 75.7 °F 72.5 °F 30.14 in Calm     90% 0.00 in 0 W/m2
04:44 75.6 °F 72.5 °F 30.14 in Calm     90% 0.00 in 0 W/m2
04:49 75.5 °F 72.4 °F 30.14 in Calm     90% 0.00 in 0 W/m2
04:54 75.4 °F 72.3 °F 30.14 in Calm     90% 0.00 in 0 W/m2
04:59 75.4 °F 72.2 °F 30.13 in Calm     90% 0.00 in 0 W/m2
05:04 75.3 °F 72.2 °F 30.13 in Calm     90% 0.00 in 0 W/m2
05:09 75.2 °F 72.1 °F 30.14 in Calm     90% 0.00 in 0 W/m2
05:14 75.1 °F 72.2 °F 30.14 in Calm     90.8% 0.00 in 0 W/m2
05:19 75.1 °F 72.3 °F 30.14 in Calm     91% 0.00 in 0 W/m2
05:24 75 °F 72.2 °F 30.14 in Calm     91% 0.00 in 0 W/m2
05:29 74.9 °F 72.1 °F 30.14 in Calm     91% 0.00 in 0 W/m2
05:34 74.8 °F 72 °F 30.14 in Calm     91% 0.00 in 0 W/m2
05:39 74.8 °F 72 °F 30.14 in Calm     91% 0.00 in 0 W/m2
05:44 74.7 °F 71.9 °F 30.14 in Calm     91% 0.00 in 0 W/m2
05:49 74.7 °F 71.9 °F 30.15 in Calm     91% 0.00 in 0 W/m2
05:54 74.6 °F 71.8 °F 30.15 in Calm     91% 0.00 in 5 W/m2
05:59 74.6 °F 71.8 °F 30.15 in Calm     91% 0.00 in 7 W/m2
06:04 74.5 °F 71.7 °F 30.15 in Calm     91% 0.00 in 11 W/m2
06:09 74.5 °F 71.9 °F 30.15 in Calm     91.5% 0.00 in 12 W/m2
06:14 74.5 °F 72 °F 30.15 in Calm     92% 0.00 in 14 W/m2
06:19 74.5 °F 72.1 °F 30.15 in Calm     92% 0.00 in 14 W/m2
06:24 74.6 °F 72.1 °F 30.15 in Calm     92% 0.00 in 14 W/m2
06:29 74.6 °F 72.1 °F 30.16 in Calm     92% 0.00 in 18 W/m2
06:34 74.6 °F 72.1 °F 30.16 in Calm     92% 0.00 in 25 W/m2
06:39 74.7 °F 72.2 °F 30.16 in Calm     92% 0.00 in 25 W/m2
06:44 74.7 °F 72.2 °F 30.16 in Calm     92% 0.00 in 32 W/m2
06:49 74.8 °F 72.4 °F 30.16 in Calm     92.3% 0.00 in 58 W/m2
06:54 75 °F 72.8 °F 30.16 in Calm     93% 0.00 in 77 W/m2
06:59 75.3 °F 73.2 °F 30.16 in Calm     93% 0.00 in 125 W/m2
07:04 75.8 °F 73.7 °F 30.16 in Calm     93.3% 0.00 in 176 W/m2
07:09 76.3 °F 74.2 °F 30.16 in Calm     93% 0.00 in 186 W/m2
07:14 76.9 °F 74.4 °F 30.17 in Calm     91.9% 0.00 in 169 W/m2
07:19 77.5 °F 74.6 °F 30.17 in Calm     90.7% 0.00 in 188 W/m2
07:24 78.4 °F 75 °F 30.17 in Calm     89.5% 0.00 in 192 W/m2
07:29 79 °F 75 °F 30.17 in Calm     87.6% 0.00 in 232 W/m2
07:34 79.6 °F 75.1 °F 30.17 in Calm     86% 0.00 in 248 W/m2
07:39 80.4 °F 75.3 °F 30.17 in Calm     84.5% 0.00 in 262 W/m2
07:44 81 °F 75.3 °F 30.17 in Calm     82.9% 0.00 in 278 W/m2
07:49 81.7 °F 75.5 °F 30.17 in Calm     81.6% 0.00 in 294 W/m2
07:54 82.3 °F 75.5 °F 30.17 in Calm     80% 0.00 in 309 W/m2
07:59 82.9 °F 75.6 °F 30.17 in Calm     78.8% 0.00 in 327 W/m2
08:09 83.9 °F 75.9 °F 30.17 in Calm     76.9% 0.00 in 355 W/m2
08:14 84.5 °F 76.1 °F 30.17 in Calm     76% 0.00 in 378 W/m2
08:19 85 °F 76.2 °F 30.17 in Calm     75.1% 0.00 in 394 W/m2
08:24 85.4 °F 76.3 °F 30.17 in Calm     74.3% 0.00 in 403 W/m2
08:29 85.7 °F 76.1 °F 30.17 in Calm     72.9% 0.00 in 420 W/m2
08:34 86.1 °F 76.5 °F 30.17 in Calm     73.2% 0.00 in 436 W/m2
08:39 86.6 °F 76.8 °F 30.17 in Calm     72.6% 0.00 in 452 W/m2
08:44 87 °F 76.2 °F 30.17 in Calm     70.4% 0.00 in 503 W/m2
08:49 87.2 °F 76.3 °F 30.17 in Calm     70.3% 0.00 in 519 W/m2
08:54 87.1 °F 76.4 °F 30.17 in Calm     70.5% 0.00 in 592 W/m2
08:59 87.3 °F 77 °F 30.17 in Calm     71.5% 0.00 in 582 W/m2
09:04 87.8 °F 76.6 °F 30.17 in Calm     69.5% 0.00 in 548 W/m2
09:09 88.3 °F 76.8 °F 30.17 in Calm     69% 0.00 in 538 W/m2
09:14 88.8 °F 76.7 °F 30.17 in Calm   2 mph 67.7% 0.00 in 555 W/m2
09:19 89 °F 76.7 °F 30.17 in Calm   2 mph 67.1% 0.00 in 571 W/m2
09:24 89.2 °F 76.8 °F 30.16 in Calm   2 mph 67.1% 0.00 in 582 W/m2
09:29 89.2 °F 76.6 °F 30.17 in Calm   2 mph 66.5% 0.00 in 596 W/m2
09:34 89.2 °F 76.8 °F 30.17 in Calm   2 mph 67% 0.00 in 612 W/m2
09:39 89.6 °F 77.3 °F 30.16 in Calm   2 mph 67.2% 0.00 in 624 W/m2
09:44 89.8 °F 77.3 °F 30.16 in Calm   2 mph 66.7% 0.00 in 638 W/m2
09:49 90.2 °F 77.7 °F 30.16 in WSW 0.1 mph 2 mph 66.9% 0.00 in 650 W/m2
09:54 90.4 °F 76.9 °F 30.16 in SW 0.2 mph 4 mph 64.6% 0.00 in 664 W/m2
09:59 90.2 °F 77.1 °F 30.16 in Calm   4 mph 65.5% 0.00 in 677 W/m2
10:04 90.1 °F 77.1 °F 30.16 in SW 0.1 mph 4 mph 65.9% 0.00 in 687 W/m2
10:09 90.2 °F 77 °F 30.16 in Calm   4 mph 65.5% 0.00 in 694 W/m2
10:14 90.3 °F 77.3 °F 30.16 in SW 0.3 mph 7 mph 65.7% 0.00 in 707 W/m2
10:19 90.7 °F 77.9 °F 30.16 in WSW 0.1 mph 7 mph 66.2% 0.00 in 740 W/m2
10:24 91.1 °F 77.3 °F 30.16 in SW 0.1 mph 7 mph 64.2% 0.00 in 805 W/m2
10:29 91.1 °F 76.9 °F 30.16 in South 0.3 mph 7 mph 63.4% 0.00 in 819 W/m2
10:34 90.8 °F 77.2 °F 30.16 in Calm   7 mph 64.5% 0.00 in 823 W/m2
10:39 90.9 °F 77.9 °F 30.16 in Calm     65.8% 0.00 in 816 W/m2
10:44 90.9 °F 77.3 °F 30.16 in SSW 0.1 mph 4 mph 64.5% 0.00 in 668 W/m2
10:49 90.8 °F 77.4 °F 30.16 in SW 0.1 mph 4 mph 65% 0.00 in 605 W/m2
10:54 91 °F 77.2 °F 30.15 in Calm   4 mph 64% 0.00 in 844 W/m2
10:59 91.3 °F 77.3 °F 30.15 in Calm   4 mph 63.8% 0.00 in 844 W/m2
11:04 91.7 °F 77.6 °F 30.14 in SSW 0.2 mph 4 mph 63.5% 0.00 in 819 W/m2
11:09 92.2 °F 77.2 °F 30.14 in South 0.6 mph 5 mph 61.9% 0.00 in 893 W/m2
11:14 92 °F 77.4 °F 30.14 in South 0.1 mph 5 mph 62.7% 0.00 in 896 W/m2
11:19 92.1 °F 77.5 °F 30.14 in SE 0.2 mph 5 mph 62.7% 0.00 in 956 W/m2
11:24 92.5 °F 76.9 °F 30.14 in SW 0.4 mph 5 mph 60.6% 0.00 in 937 W/m2
11:29 92.6 °F 76.5 °F 30.14 in SW 0.7 mph 5 mph 59.5% 0.00 in 891 W/m2
11:34 92.2 °F 76.2 °F 30.14 in WSW 0.5 mph 12 mph 59.9% 0.00 in 983 W/m2
11:39 92.2 °F 77 °F 30.14 in West 0.1 mph 12 mph 61.3% 0.00 in 940 W/m2
11:44 92.7 °F 76.9 °F 30.14 in SW 0.9 mph 12 mph 60.2% 0.00 in 977 W/m2
11:49 93.4 °F 77.4 °F 30.14 in WSW 0.5 mph 12 mph 60.1% 0.00 in 970 W/m2
11:54 94.1 °F 77.3 °F 30.14 in SW 0.6 mph 12 mph 58.4% 0.00 in 970 W/m2
11:59 94.4 °F 76.1 °F 30.14 in Calm   12 mph 55.7% 0.00 in 918 W/m2
12:00 94.4 °F 76.3 °F 30.14 in Calm   12 mph 56% 0.00 in 918 W/m2
12:09 94.5 °F 76.1 °F 30.14 in WSW 0.1 mph 4 mph 55.6% 0.00 in 951 W/m2
12:14 94.7 °F 76.2 °F 30.14 in SW 0.7 mph 9 mph 55.4% 0.00 in 960 W/m2
12:19 94.9 °F 76.3 °F 30.13 in WSW 1 mph 9 mph 55% 0.00 in 947 W/m2
12:24 94.8 °F 75.2 °F 30.13 in WSW 0.6 mph 9 mph 53.5% 0.00 in 946 W/m2
12:29 94.4 °F 75.4 °F 30.13 in SW 0.6 mph 9 mph 54.5% 0.00 in 1021 W/m2
12:34 94.4 °F 76.1 °F 30.13 in WSW 0.5 mph 9 mph 55.6% 0.00 in 997 W/m2
12:39 94.7 °F 76.3 °F 30.13 in WSW 0.9 mph 6 mph 55.4% 0.00 in 1016 W/m2
12:44 95.1 °F 76 °F 30.13 in WSW 0.9 mph 6 mph 54.3% 0.00 in 1007 W/m2
12:49 95.4 °F 75.9 °F 30.12 in WSW 1.1 mph 8 mph 53.5% 0.00 in 1000 W/m2
12:54 95.4 °F 75.1 °F 30.12 in WSW 1.4 mph 10 mph 52.3% 0.00 in 1037 W/m2
12:59 95.3 °F 75.5 °F 30.12 in WSW 1.8 mph 12 mph 53% 0.00 in 1048 W/m2
13:04 95.3 °F 74.8 °F 30.12 in South 0.5 mph 12 mph 51.7% 0.00 in 984 W/m2
13:09 95 °F 73.9 °F 30.12 in South 0.8 mph 5 mph 50.7% 0.00 in 981 W/m2
13:14 94.7 °F 73.1 °F 30.12 in SSW 0.9 mph 6 mph 50% 0.00 in 937 W/m2
13:19 94.3 °F 73 °F 30.12 in SSE 1 mph 6 mph 50.2% 0.00 in 933 W/m2
13:24 94.1 °F 73.4 °F 30.12 in SSW 0.4 mph 6 mph 51.4% 0.00 in 935 W/m2
13:29 93.8 °F 73.2 °F 30.13 in South 1 mph 6 mph 51.3% 0.00 in 877 W/m2
13:34 93.4 °F 73.2 °F 30.12 in SSW 0.4 mph 7 mph 52% 0.00 in 819 W/m2
13:39 93.3 °F 74.1 °F 30.13 in WSW 0.7 mph 7 mph 53.9% 0.00 in 819 W/m2
13:44 93.2 °F 74.2 °F 30.13 in SW 1 mph 7 mph 54.3% 0.00 in 717 W/m2
13:49 93.4 °F 74.9 °F 30.12 in SW 1.2 mph 7 mph 55.2% 0.00 in 717 W/m2
13:54 93.5 °F 74.5 °F 30.12 in WSW 0.6 mph 7 mph 54.1% 0.00 in 561 W/m2
13:59 93.5 °F 74.2 °F 30.12 in SW 0.8 mph 7 mph 53.6% 0.00 in 216 W/m2
14:04 93.3 °F 74.3 °F 30.12 in SW 0.2 mph 7 mph 54.4% 0.00 in 475 W/m2
14:09 92.9 °F 73.8 °F 30.12 in South 0.3 mph 4 mph 54% 0.00 in 483 W/m2
14:14 92.6 °F 73.8 °F 30.12 in SW 0.4 mph 4 mph 54.5% 0.00 in 598 W/m2
14:19 92.4 °F 73.6 °F 30.12 in South 1.1 mph 7 mph 54.3% 0.00 in 715 W/m2
14:24 92.2 °F 73.5 °F 30.12 in SSW 0.5 mph 7 mph 54.7% 0.00 in 715 W/m2
14:29 92.3 °F 73.3 °F 30.12 in SSW 0.3 mph 7 mph 54.2% 0.00 in 847 W/m2
14:34 92.6 °F 73.3 °F 30.11 in South 0.7 mph 7 mph 53.6% 0.00 in 847 W/m2
14:39 92.9 °F 72.7 °F 30.11 in South 0.8 mph 5 mph 52.1% 0.00 in 598 W/m2
14:44 93.1 °F 72.6 °F 30.11 in South 0.3 mph 5 mph 51.5% 0.00 in 380 W/m2
14:49 93.4 °F 73.2 °F 30.11 in South 0.4 mph 5 mph 52.2% 0.00 in 220 W/m2
14:54 93.6 °F 73.6 °F 30.11 in SW 0.5 mph 5 mph 52.5% 0.00 in 100 W/m2
14:59 93.9 °F 74.1 °F 30.11 in SW 1.2 mph 9 mph 52.8% 0.00 in 104 W/m2
15:04 94.2 °F 74 °F 30.11 in SW 0.1 mph 9 mph 52.3% 0.00 in 79 W/m2
15:09 94.1 °F 73.8 °F 30.11 in SW 0.2 mph 2 mph 52% 0.00 in 79 W/m2
15:14 93.8 °F 73.9 °F 30.11 in SSW 0.3 mph 3 mph 52.5% 0.00 in 83 W/m2
15:19 93.7 °F 74 °F 30.11 in SW 1.1 mph 7 mph 53.1% 0.00 in 114 W/m2
15:24 93.5 °F 74.4 °F 30.10 in SW 0.9 mph 7 mph 54.1% 0.00 in 114 W/m2
15:29 93.4 °F 74.1 °F 30.10 in SW 0.3 mph 7 mph 53.7% 0.00 in 72 W/m2
15:34 93.1 °F 74.3 °F 30.10 in SW 1.7 mph 10 mph 54.5% 0.00 in 76 W/m2
15:39 93 °F 74.3 °F 30.10 in WSW 0.4 mph 10 mph 54.7% 0.00 in 76 W/m2
15:44 93.2 °F 74.5 °F 30.10 in SW 0.3 mph 10 mph 54.8% 0.00 in 72 W/m2
15:49 93.4 °F 74.4 °F 30.10 in SSW 0.4 mph 10 mph 54.2% 0.00 in 67 W/m2
15:54 93.4 °F 74.3 °F 30.10 in SSW 0.3 mph 10 mph 54% 0.00 in 76 W/m2
15:59 93.3 °F 73.8 °F 30.10 in South 0.1 mph 10 mph 53.3% 0.00 in 107 W/m2
16:07 92.9 °F 73.9 °F 30.10 in Calm     54.1% 0.00 in 72 W/m2
16:14 92.9 °F 73.9 °F 30.10 in SW 0.1 mph 3 mph 54.2% 0.00 in 65 W/m2
16:19 92.7 °F 73.6 °F 30.10 in SW 0.4 mph 3 mph 54% 0.00 in 63 W/m2
16:24 92.3 °F 73.4 °F 30.10 in SSW 0.6 mph 4 mph 54.2% 0.00 in 56 W/m2
16:29 91.9 °F 73 °F 30.10 in South 0.1 mph 4 mph 54.3% 0.00 in 51 W/m2
16:34 91.5 °F 73.1 °F 30.10 in South 0.4 mph 4 mph 55% 0.00 in 46 W/m2
16:39 91 °F 72.8 °F 30.09 in SW 0.3 mph 4 mph 55.4% 0.00 in 40 W/m2
16:44 90.6 °F 72.7 °F 30.09 in Calm   4 mph 56% 0.00 in 42 W/m2
16:49 90.2 °F 73 °F 30.09 in WSW 0.1 mph 5 mph 57.1% 0.00 in 40 W/m2
16:54 89.9 °F 73.2 °F 30.09 in South 0.3 mph 7 mph 58% 0.00 in 42 W/m2
16:59 89.6 °F 72.9 °F 30.09 in SW 0.2 mph 7 mph 58% 0.00 in 49 W/m2
17:04 89.4 °F 72.9 °F 30.09 in South 0.3 mph 7 mph 58.3% 0.00 in 51 W/m2
17:09 89.3 °F 73.1 °F 30.09 in South 0.2 mph 4 mph 59% 0.00 in 53 W/m2
17:14 89.1 °F 72.9 °F 30.09 in South 0.4 mph 4 mph 59% 0.00 in 53 W/m2
17:19 88.9 °F 73.2 °F 30.09 in South 0.3 mph 4 mph 59.9% 0.00 in 49 W/m2
17:24 88.8 °F 73.1 °F 30.09 in Calm   4 mph 60% 0.00 in 53 W/m2
17:29 88.7 °F 73.4 °F 30.09 in Calm   4 mph 60.7% 0.00 in 60 W/m2
17:34 88.7 °F 73.4 °F 30.09 in SW 0.3 mph 5 mph 60.7% 0.00 in 60 W/m2
17:39 88.8 °F 73.6 °F 30.09 in WSW 0.3 mph 6 mph 60.8% 0.00 in 56 W/m2
17:44 88.9 °F 73.5 °F 30.09 in WSW 0.4 mph 6 mph 60.6% 0.00 in 60 W/m2
17:49 88.8 °F 73.5 °F 30.09 in Calm   6 mph 60.7% 0.00 in 60 W/m2
17:54 88.9 °F 73.6 °F 30.09 in SW 0.1 mph 9 mph 60.7% 0.00 in 54 W/m2
17:59 88.9 °F 73.7 °F 30.09 in SW 0.3 mph 9 mph 61% 0.00 in 54 W/m2
18:04 89 °F 73.6 °F 30.09 in SW 0.1 mph 9 mph 60.7% 0.00 in 53 W/m2
18:09 89 °F 73.8 °F 30.08 in Calm   3 mph 61% 0.00 in 49 W/m2
18:14 88.9 °F 74.1 °F 30.08 in SW 0.6 mph 6 mph 61.7% 0.00 in 44 W/m2
18:19 88.9 °F 74.2 °F 30.08 in Calm   6 mph 62% 0.00 in 39 W/m2
18:24 88.8 °F 74.5 °F 30.09 in West 0.2 mph 6 mph 62.8% 0.00 in 35 W/m2
18:29 88.6 °F 74.4 °F 30.08 in West 0.1 mph 6 mph 63% 0.00 in 32 W/m2
18:34 88.4 °F 74.4 °F 30.08 in WSW 0.2 mph 6 mph 63.5% 0.00 in 30 W/m2
18:39 88.2 °F 74.6 °F 30.08 in Calm   6 mph 64.3% 0.00 in 30 W/m2
18:44 88 °F 74.8 °F 30.08 in South 0.1 mph 6 mph 65% 0.00 in 28 W/m2
18:49 87.8 °F 75 °F 30.08 in SSW 0.1 mph 6 mph 66% 0.00 in 26 W/m2
18:54 87.6 °F 75 °F 30.09 in SW 0.3 mph 6 mph 66.3% 0.00 in 26 W/m2
18:59 87.4 °F 75.1 °F 30.09 in Calm   6 mph 67% 0.00 in 25 W/m2
19:04 87.1 °F 74.9 °F 30.09 in SSW 0.2 mph 6 mph 67.2% 0.00 in 23 W/m2
19:09 86.8 °F 75 °F 30.09 in South 0.3 mph 4 mph 68% 0.00 in 23 W/m2
19:14 86.5 °F 74.8 °F 30.09 in SW 0.2 mph 4 mph 68.2% 0.00 in 21 W/m2
19:19 86.3 °F 74.9 °F 30.09 in Calm   4 mph 69% 0.00 in 21 W/m2
19:24 86.1 °F 74.9 °F 30.09 in SW 0.2 mph 4 mph 69.3% 0.00 in 21 W/m2
19:29 85.9 °F 75 °F 30.09 in SW 0.1 mph 4 mph 70% 0.00 in 21 W/m2
19:34 85.7 °F 74.7 °F 30.09 in WSW 0.2 mph 4 mph 70% 0.00 in 16 W/m2
19:39 85.5 °F 74.6 °F 30.10 in SW 0.1 mph 2 mph 70% 0.00 in 11 W/m2
19:44 85.3 °F 74.7 °F 30.09 in Calm   2 mph 70.7% 0.00 in 9 W/m2
19:49 85.1 °F 74.6 °F 30.09 in Calm   2 mph 71% 0.00 in 7 W/m2
19:54 84.8 °F 74.4 °F 30.10 in SSW 0.1 mph 2 mph 71% 0.00 in 0 W/m2
19:59 84.6 °F 74.2 °F 30.10 in South 0.1 mph 2 mph 71% 0.00 in 0 W/m2
20:00 84.5 °F 74.1 °F 30.10 in Calm   2 mph 71% 0.00 in 0 W/m2
20:09 84.2 °F 74.2 °F 30.10 in Calm     72% 0.00 in 0 W/m2
20:14 84.1 °F 74.1 °F 30.10 in Calm     72% 0.00 in 0 W/m2
20:18 83.9 °F 73.9 °F 30.10 in Calm   2 mph 72% 0.00 in 0 W/m2
20:30 83.5 °F 73.9 °F 30.10 in Calm   4 mph 73% 0.00 in 0 W/m2
21:00 82.5 °F 73.8 °F 30.11 in Calm   3 mph 75% 0.00 in 0 W/m2
22:00 81.1 °F 73.6 °F 30.13 in Calm     78% 0.00 in 0 W/m2
22:30 80.7 °F 73.6 °F 30.13 in Calm   1 mph 79% 0.00 in 0 W/m2
23:00 80.3 °F 73.9 °F 30.13 in Calm   1 mph 81% 0.00 in 0 W/m2
23:30 79.8 °F 74.2 °F 30.13 in Calm   3 mph 83% 0.00 in 0 W/m2
Hartford County Weather
Compliments of Weather Underground - 4 mb